»·PEaware :: N831KA KLGB-KIFP

N831KA :: KLGB-KIFP

FLIGHT INFORMATION

Flight Status: Arrived
Operator: Privately registered:
United States
More flights under this callsign
Pilot: Georg L. (13308)
Aircraft: BEECH AIRCRAFT SUPER KING AIR 350
(B350)
More flights by this aircraft type
Origin: KLGB Long Beach
United States
Destination: KIFP Laughlin/Bullhead Intl
United States
More flights between these airports :: More routes between these airports
Route: +ZOOMM2 MISEN GFS
File this flight plan on PilotEdge
Remarks: ROUTE VIA FOREFLIGHT
Altitude:
(Current/Filed)
29,000ft
Speed:
(Current/Filed)
293kts
Departed: 05-Jul-20 10:42 AM
Arrived: 05-Jul-20 11:40 AM
Distance/Time
Traveled:
195nm/0:57
Distance/Time
To Go:
Arrived

Flight Plot

Page will automatically refresh every two minutes.

Flight plan parsing failed; only flown route is shown


Map Options




Map Legend


Flown Route
Filed Route
Departure Airport
Arrival Airport
Navaid (VOR, NDB)
Fix

Horizontal Profiles

Position Reports

Time Latitude Longitude Heading Altitude Ground
Speed
05-Jul-20 09:21 33.816738 -118.158286 89 65ft 0kts
05-Jul-20 09:22 33.816738 -118.158286 89 65ft 0kts
05-Jul-20 09:24 33.816738 -118.158286 89 65ft 0kts
05-Jul-20 09:24 33.816738 -118.158286 89 65ft 0kts
05-Jul-20 09:25 33.816738 -118.158286 89 65ft 0kts
05-Jul-20 09:26 33.816738 -118.158286 89 65ft 0kts
05-Jul-20 09:27 33.816738 -118.158286 89 65ft 0kts
05-Jul-20 09:28 33.816738 -118.158286 89 65ft 0kts
05-Jul-20 09:29 33.816738 -118.158286 89 65ft 0kts
05-Jul-20 09:30 33.816738 -118.158286 89 65ft 0kts
05-Jul-20 09:31 33.816738 -118.158286 89 65ft 0kts
05-Jul-20 09:32 33.816738 -118.158286 89 65ft 0kts
05-Jul-20 09:33 33.816738 -118.158286 89 65ft 0kts
05-Jul-20 09:34 33.816738 -118.158286 89 65ft 0kts
05-Jul-20 09:35 33.816738 -118.158286 89 65ft 0kts
05-Jul-20 09:36 33.816738 -118.158286 89 65ft 0kts
05-Jul-20 09:37 33.816738 -118.158286 89 65ft 0kts
05-Jul-20 09:38 33.816738 -118.158286 89 65ft 0kts
05-Jul-20 09:39 33.816738 -118.158286 89 65ft 0kts
05-Jul-20 09:40 33.816738 -118.158286 89 65ft 0kts
05-Jul-20 09:41 33.816738 -118.158286 89 65ft 0kts
05-Jul-20 09:42 33.816738 -118.158286 89 65ft 0kts
05-Jul-20 09:43 33.816738 -118.158286 89 65ft 0kts
05-Jul-20 09:44 33.816738 -118.158286 89 65ft 0kts
05-Jul-20 09:45 33.816738 -118.158286 89 65ft 0kts
05-Jul-20 09:46 33.816738 -118.158286 89 65ft 0kts
05-Jul-20 09:47 33.816738 -118.158286 89 65ft 0kts
05-Jul-20 09:48 33.816738 -118.158286 89 65ft 0kts
05-Jul-20 09:49 33.816738 -118.158286 89 65ft 0kts
05-Jul-20 09:50 33.816738 -118.158286 89 65ft 0kts
05-Jul-20 09:51 33.816738 -118.158286 89 65ft 0kts
05-Jul-20 09:52 33.816738 -118.158286 89 65ft 0kts
05-Jul-20 09:53 33.816738 -118.158286 89 65ft 0kts
05-Jul-20 09:54 33.816738 -118.158286 89 65ft 0kts
05-Jul-20 09:55 33.816738 -118.158286 89 65ft 0kts
05-Jul-20 09:56 33.816738 -118.158286 89 65ft 0kts
05-Jul-20 09:57 33.816738 -118.158286 89 65ft 0kts
05-Jul-20 09:58 33.816738 -118.158286 89 65ft 0kts
05-Jul-20 09:59 33.816738 -118.158286 89 65ft 0kts
05-Jul-20 10:00 33.816738 -118.158286 89 65ft 0kts
05-Jul-20 10:01 33.816738 -118.158286 89 65ft 0kts
05-Jul-20 10:02 33.816738 -118.158286 89 65ft 0kts
05-Jul-20 10:03 33.816738 -118.158286 89 65ft 0kts
05-Jul-20 10:04 33.816738 -118.158286 89 65ft 0kts
05-Jul-20 10:05 33.816738 -118.158286 89 65ft 0kts
05-Jul-20 10:06 33.816738 -118.158286 90 65ft 0kts
05-Jul-20 10:07 33.816738 -118.158286 90 65ft 0kts
05-Jul-20 10:08 33.816738 -118.158286 90 65ft 0kts
05-Jul-20 10:09 33.816738 -118.158285 89 65ft 0kts
05-Jul-20 10:10 33.816756 -118.157885 81 65ft 0kts
05-Jul-20 10:11 33.816760 -118.157852 81 65ft 0kts
05-Jul-20 10:12 33.816760 -118.157852 81 65ft 0kts
05-Jul-20 10:13 33.816760 -118.157852 81 65ft 0kts
05-Jul-20 10:14 33.816760 -118.157852 81 65ft 0kts
05-Jul-20 10:15 33.816745 -118.157925 99 65ft 0kts
05-Jul-20 10:16 33.816745 -118.157925 99 65ft 0kts
05-Jul-20 10:17 33.816745 -118.157925 99 65ft 0kts
05-Jul-20 10:18 33.816745 -118.157925 99 65ft 0kts
05-Jul-20 10:19 33.816745 -118.157925 99 65ft 0kts
05-Jul-20 10:20 33.816745 -118.157925 99 65ft 0kts
05-Jul-20 10:21 33.816745 -118.157925 99 65ft 0kts
05-Jul-20 10:22 33.816745 -118.157925 99 65ft 0kts
05-Jul-20 10:23 33.816745 -118.157925 99 65ft 0kts
05-Jul-20 10:24 33.816745 -118.157925 99 65ft 0kts
05-Jul-20 10:25 33.816745 -118.157925 99 65ft 0kts
05-Jul-20 10:26 33.816745 -118.157925 99 65ft 0kts
05-Jul-20 10:27 33.816745 -118.157925 99 65ft 0kts
05-Jul-20 10:28 33.816431 -118.157301 177 65ft 6kts
05-Jul-20 10:29 33.814931 -118.156081 90 65ft 12kts
05-Jul-20 10:30 33.814947 -118.150688 88 65ft 11kts
05-Jul-20 10:31 33.812506 -118.146797 130 65ft 16kts
05-Jul-20 10:32 33.809662 -118.143188 135 65ft 14kts
05-Jul-20 10:33 33.807275 -118.140275 134 65ft 14kts
05-Jul-20 10:34 33.806454 -118.139116 100 65ft 0kts
05-Jul-20 10:35 33.806453 -118.139112 100 65ft 0kts
05-Jul-20 10:36 33.806453 -118.139112 100 65ft 0kts
05-Jul-20 10:37 33.806453 -118.139112 100 65ft 0kts
05-Jul-20 10:38 33.806453 -118.139113 100 65ft 0kts
05-Jul-20 10:39 33.807211 -118.138551 331 65ft 7kts
05-Jul-20 10:40 33.807302 -118.138641 314 65ft 0kts
05-Jul-20 10:41 33.823845 -118.157715 313 1034ft 134kts
05-Jul-20 10:42 33.820454 -118.189619 193 3025ft 161kts
05-Jul-20 10:43 33.763302 -118.205106 193 3994ft 228kts
05-Jul-20 10:44 33.701516 -118.221691 195 5970ft 221kts
05-Jul-20 10:45 33.639465 -118.238540 194 7025ft 255kts
05-Jul-20 10:46 33.565434 -118.258764 194 7005ft 285kts
05-Jul-20 10:47 33.494674 -118.242254 114 8465ft 237kts
05-Jul-20 10:48 33.524244 -118.201410 4 10668ft 209kts
05-Jul-20 10:49 33.582829 -118.193666 5 12655ft 215kts
05-Jul-20 10:50 33.636848 -118.165246 34 14459ft 219kts
05-Jul-20 10:51 33.691824 -118.120304 34 15042ft 267kts
05-Jul-20 10:52 33.752734 -118.070461 34 16591ft 256kts
05-Jul-20 10:53 33.809677 -118.023768 35 18346ft 244kts
05-Jul-20 10:54 33.866928 -117.976736 34 19919ft 251kts
05-Jul-20 10:55 33.925009 -117.927235 37 21425ft 258kts
05-Jul-20 10:56 33.983729 -117.873561 36 22922ft 267kts
05-Jul-20 10:57 34.043883 -117.818466 36 24376ft 275kts
05-Jul-20 10:58 34.102298 -117.757490 49 25874ft 284kts
05-Jul-20 10:59 34.152807 -117.682243 49 27145ft 292kts
05-Jul-20 11:00 34.204075 -117.605770 48 27761ft 290kts
05-Jul-20 11:01 34.253998 -117.531389 48 28618ft 279kts
05-Jul-20 11:02 34.303058 -117.458157 48 29079ft 287kts
05-Jul-20 11:04 34.354991 -117.380451 48 29094ft 305kts
05-Jul-20 11:05 34.409377 -117.298887 49 29096ft 315kts
05-Jul-20 11:06 34.464890 -117.215451 49 29084ft 321kts
05-Jul-20 11:07 34.521084 -117.130794 49 29090ft 323kts
05-Jul-20 11:08 34.578225 -117.046572 47 29090ft 324kts
05-Jul-20 11:09 34.636109 -116.962140 47 29064ft 326kts
05-Jul-20 11:10 34.694148 -116.877283 47 29039ft 328kts
05-Jul-20 11:11 34.752505 -116.791753 47 29037ft 329kts
05-Jul-20 11:12 34.810823 -116.706071 47 29032ft 330kts
05-Jul-20 11:13 34.872866 -116.624661 35 29018ft 327kts
05-Jul-20 11:14 34.944048 -116.555663 35 29026ft 327kts
05-Jul-20 11:15 35.015262 -116.486478 35 29029ft 327kts
05-Jul-20 11:16 35.085763 -116.417029 43 29012ft 329kts
05-Jul-20 11:17 35.103432 -116.309814 87 28965ft 337kts
05-Jul-20 11:18 35.106583 -116.194244 87 29015ft 341kts
05-Jul-20 11:19 35.109602 -116.078026 87 29091ft 343kts
05-Jul-20 11:20 35.112575 -115.958903 87 28305ft 366kts
05-Jul-20 11:21 35.115499 -115.836971 87 26677ft 345kts
05-Jul-20 11:21 35.117725 -115.740735 87 25360ft 339kts
05-Jul-20 11:23 35.120661 -115.608075 87 24050ft 326kts
05-Jul-20 11:23 35.122679 -115.514543 87 24015ft 335kts
05-Jul-20 11:24 35.125052 -115.396174 87 22736ft 353kts
05-Jul-20 11:25 35.127327 -115.278700 88 21031ft 343kts
05-Jul-20 11:26 35.137743 -115.163407 63 19243ft 343kts
05-Jul-20 11:27 35.197896 -115.075663 49 17434ft 334kts
05-Jul-20 11:28 35.256946 -114.988649 49 15633ft 332kts
05-Jul-20 11:29 35.314493 -114.902488 50 13815ft 324kts
05-Jul-20 11:30 35.339687 -114.806005 96 11993ft 302kts
05-Jul-20 11:31 35.333666 -114.705370 95 10142ft 286kts
05-Jul-20 11:32 35.327575 -114.611785 95 8070ft 265kts
05-Jul-20 11:33 35.280136 -114.583489 219 6487ft 234kts
05-Jul-20 11:34 35.229599 -114.613607 134 4464ft 242kts
05-Jul-20 11:35 35.229243 -114.538721 41 3097ft 220kts
05-Jul-20 11:36 35.248792 -114.571214 194 2008ft 167kts
05-Jul-20 11:37 35.207747 -114.564058 172 1539ft 146kts
05-Jul-20 11:38 35.172744 -114.560750 175 845ft 106kts
05-Jul-20 11:39 35.156016 -114.559270 135 706ft 12kts
05-Jul-20 11:40 35.155927 -114.558232 86 706ft 1kts
05-Jul-20 11:41 35.156428 -114.556036 25 706ft 5kts
05-Jul-20 11:42 35.156504 -114.556147 269 706ft 0kts
05-Jul-20 11:43 35.156504 -114.556146 269 706ft 0kts
05-Jul-20 11:44 35.156504 -114.556146 269 706ft 0kts
05-Jul-20 11:45 35.156504 -114.556146 269 706ft 0kts
05-Jul-20 11:46 35.156504 -114.556146 269 706ft 0kts
05-Jul-20 11:47 35.156504 -114.556146 269 706ft 0kts

Navigation Log

Ident Type
Flight plan parsing failed, navigation log unavailable